createdAt,value
2017-12-05T00:02:18.586Z,33.17
2017-12-05T00:04:50.148Z,40.70
2017-12-05T00:07:21.538Z,38.60
2017-12-05T00:09:52.832Z,35.57
2017-12-05T00:12:24.338Z,30.77
2017-12-05T00:14:55.938Z,33.60
2017-12-05T00:17:27.995Z,34.50
2017-12-05T00:19:59.328Z,34.07
2017-12-05T00:22:30.648Z,32.83
2017-12-05T00:25:02.317Z,33.00
2017-12-05T00:27:33.644Z,39.97
2017-12-05T00:30:06.215Z,35.17
2017-12-05T00:32:37.888Z,30.97
2017-12-05T00:35:09.215Z,31.23
2017-12-05T00:37:40.761Z,33.80
2017-12-05T00:40:12.708Z,28.90
2017-12-05T00:42:44.432Z,32.87
2017-12-05T00:45:15.836Z,35.50
2017-12-05T00:47:47.239Z,37.40
2017-12-05T00:50:18.920Z,34.73
2017-12-05T00:52:50.340Z,37.77
2017-12-05T00:55:21.636Z,40.33
2017-12-05T00:57:53.253Z,36.67
2017-12-05T01:00:24.700Z,33.97
2017-12-05T01:02:56.057Z,49.50
2017-12-05T01:05:28.976Z,38.43
2017-12-05T01:08:00.315Z,34.40
2017-12-05T01:10:31.735Z,41.53
2017-12-05T01:13:03.529Z,37.60
2017-12-05T01:15:36.041Z,42.57
2017-12-05T01:18:07.408Z,34.40
2017-12-05T01:20:38.744Z,40.90
2017-12-05T01:23:10.351Z,37.60
2017-12-05T01:25:41.693Z,42.90
2017-12-05T01:28:13.995Z,45.97
2017-12-05T01:30:45.368Z,44.77
2017-12-05T01:33:16.981Z,41.50
2017-12-05T01:35:48.328Z,45.40
2017-12-05T01:38:20.388Z,38.90
2017-12-05T01:40:52.372Z,40.87
2017-12-05T01:43:24.172Z,43.50
2017-12-05T01:45:55.472Z,44.53
2017-12-05T01:48:26.911Z,46.40
2017-12-05T01:50:58.292Z,41.93
2017-12-05T01:53:30.067Z,43.53
2017-12-05T01:56:02.702Z,39.47
2017-12-05T01:58:34.151Z,44.20
2017-12-05T02:01:05.968Z,47.20
2017-12-05T02:03:37.828Z,43.80
2017-12-05T02:06:10.009Z,43.57
2017-12-05T02:08:41.514Z,44.93
2017-12-05T02:11:13.112Z,48.03
2017-12-05T02:13:44.821Z,49.30
2017-12-05T02:16:16.213Z,45.70
2017-12-05T02:18:47.663Z,47.43
2017-12-05T02:21:19.223Z,52.13
2017-12-05T02:23:50.812Z,52.67
2017-12-05T02:26:22.119Z,50.90
2017-12-05T02:28:53.470Z,49.50
2017-12-05T02:31:25.006Z,44.47
2017-12-05T02:33:57.024Z,44.37
2017-12-05T02:36:28.351Z,55.30
2017-12-05T02:38:59.719Z,48.23
2017-12-05T02:41:31.404Z,49.50
2017-12-05T02:44:04.066Z,51.00
2017-12-05T02:46:36.438Z,48.07
2017-12-05T02:49:08.023Z,49.03
2017-12-05T02:51:39.412Z,48.87
2017-12-05T02:54:11.114Z,45.83
2017-12-05T02:56:42.697Z,44.40
2017-12-05T02:59:14.286Z,51.07
2017-12-05T03:01:45.633Z,54.43
2017-12-05T03:04:18.441Z,51.87
2017-12-05T03:06:51.198Z,51.50
2017-12-05T03:09:22.545Z,51.27
2017-12-05T03:11:54.364Z,53.50
2017-12-05T03:14:25.808Z,48.30
2017-12-05T03:16:57.176Z,55.53
2017-12-05T03:19:28.545Z,57.07
2017-12-05T03:21:59.860Z,56.40
2017-12-05T03:24:31.300Z,55.00
2017-12-05T03:27:03.087Z,47.17
2017-12-05T03:29:34.522Z,48.50
2017-12-05T03:32:07.258Z,56.97
2017-12-05T03:34:39.752Z,62.30
2017-12-05T03:37:11.047Z,48.97
2017-12-05T03:39:42.382Z,50.87
2017-12-05T03:42:14.315Z,50.40
2017-12-05T03:44:45.659Z,51.17
2017-12-05T03:47:16.963Z,56.07
2017-12-05T03:49:48.677Z,53.07
2017-12-05T03:52:20.117Z,48.00
2017-12-05T03:54:51.595Z,58.33
2017-12-05T03:57:23.265Z,52.60
2017-12-05T03:59:54.610Z,52.43
2017-12-05T04:02:26.060Z,49.67
2017-12-05T04:04:57.847Z,57.83
2017-12-05T04:07:29.762Z,56.63
2017-12-05T04:10:02.103Z,51.67
2017-12-05T04:12:33.423Z,55.43
2017-12-05T04:15:05.783Z,49.40
2017-12-05T04:17:37.140Z,59.13
2017-12-05T04:20:08.626Z,50.40
2017-12-05T04:22:40.186Z,50.77
2017-12-05T04:25:11.511Z,54.70
2017-12-05T04:27:43.627Z,60.63
2017-12-05T04:30:15.557Z,49.17
2017-12-05T04:32:46.878Z,51.43
2017-12-05T04:35:18.240Z,50.70
2017-12-05T04:37:49.843Z,56.73
2017-12-05T04:40:21.429Z,50.83
2017-12-05T04:42:52.810Z,46.53
2017-12-05T04:45:24.539Z,52.77
2017-12-05T04:47:55.890Z,39.70
2017-12-05T04:50:27.514Z,36.13
2017-12-05T04:52:59.171Z,46.57
2017-12-05T04:55:30.592Z,54.20
2017-12-05T04:58:04.111Z,39.97
2017-12-05T05:00:36.522Z,49.23
2017-12-05T05:03:07.835Z,37.90
2017-12-05T05:05:40.380Z,39.80
2017-12-05T05:08:12.155Z,36.30
2017-12-05T05:10:44.289Z,39.60
2017-12-05T05:13:15.773Z,38.90
2017-12-05T05:15:47.364Z,40.93
2017-12-05T05:18:18.706Z,43.93
2017-12-05T05:20:50.007Z,38.87
2017-12-05T05:23:21.840Z,38.00
2017-12-05T05:25:53.242Z,42.53
2017-12-05T05:28:24.792Z,36.73
2017-12-05T05:30:56.303Z,42.00
2017-12-05T05:33:27.911Z,37.70
2017-12-05T05:35:59.398Z,41.43
2017-12-05T05:38:30.985Z,38.93
2017-12-05T05:41:02.774Z,37.63
2017-12-05T05:43:34.215Z,41.43
2017-12-05T05:46:07.058Z,37.57
2017-12-05T05:48:38.367Z,46.23
2017-12-05T05:51:09.671Z,41.03
2017-12-05T05:53:41.244Z,54.57
2017-12-05T05:56:13.022Z,40.83
2017-12-05T05:58:44.300Z,43.70
2017-12-05T06:01:15.638Z,40.60
2017-12-05T06:03:46.939Z,44.67
2017-12-05T06:06:18.324Z,40.07
2017-12-05T06:08:50.844Z,43.37
2017-12-05T06:11:22.143Z,53.53
2017-12-05T06:13:53.411Z,41.23
2017-12-05T06:16:25.161Z,46.13
2017-12-05T06:18:56.458Z,46.13
2017-12-05T06:21:27.877Z,40.63
2017-12-05T06:23:59.163Z,48.57
2017-12-05T06:26:32.418Z,46.17
2017-12-05T06:29:04.008Z,47.30
2017-12-05T06:31:35.633Z,41.97
2017-12-05T06:34:07.185Z,51.53
2017-12-05T06:36:38.514Z,45.10
2017-12-05T06:39:10.171Z,44.60
2017-12-05T06:41:41.491Z,47.17
2017-12-05T06:44:13.440Z,49.47
2017-12-05T06:46:45.037Z,44.13
2017-12-05T06:49:16.342Z,45.07
2017-12-05T06:51:47.836Z,40.03
2017-12-05T06:54:19.522Z,44.27
2017-12-05T06:56:51.037Z,40.80
2017-12-05T06:59:22.407Z,48.97
2017-12-05T07:01:53.905Z,42.20
2017-12-05T07:04:25.463Z,37.37
2017-12-05T07:06:57.441Z,46.07
2017-12-05T07:09:31.312Z,42.33
2017-12-05T07:12:03.940Z,44.63
2017-12-05T07:14:37.207Z,53.33
2017-12-05T07:17:08.815Z,43.80
2017-12-05T07:19:40.168Z,45.10
2017-12-05T07:22:12.681Z,43.40
2017-12-05T07:24:44.038Z,47.80
2017-12-05T07:27:15.429Z,37.40
2017-12-05T07:29:47.112Z,42.67
2017-12-05T07:32:19.287Z,38.77
2017-12-05T07:34:50.954Z,38.93
2017-12-05T07:37:22.655Z,42.73
2017-12-05T07:39:54.028Z,37.70
2017-12-05T07:42:26.183Z,41.57
2017-12-05T07:44:58.358Z,48.57
2017-12-05T07:47:29.972Z,47.53
2017-12-05T07:50:02.798Z,45.40
2017-12-05T07:52:36.704Z,36.47
2017-12-05T07:55:08.057Z,35.67
2017-12-05T07:57:40.609Z,40.43
2017-12-05T08:00:12.111Z,61.33
2017-12-05T08:02:43.735Z,36.83
2017-12-05T08:05:15.852Z,47.50
2017-12-05T08:07:47.329Z,41.10
2017-12-05T08:10:19.017Z,44.57
2017-12-05T08:12:51.289Z,33.53
2017-12-05T08:15:22.652Z,46.67
2017-12-05T08:17:54.661Z,43.53
2017-12-05T08:20:26.256Z,50.10
2017-12-05T08:22:57.655Z,49.87
2017-12-05T08:25:31.171Z,44.63
2017-12-05T08:28:04.361Z,44.73
2017-12-05T08:30:37.610Z,41.73
2017-12-05T08:33:09.738Z,45.87
2017-12-05T08:35:41.119Z,42.53
2017-12-05T08:38:13.197Z,37.47
2017-12-05T08:40:44.629Z,50.73
2017-12-05T08:43:16.099Z,32.40
2017-12-05T08:45:47.918Z,36.30
2017-12-05T08:48:19.446Z,29.07
2017-12-05T08:50:50.819Z,38.40
2017-12-05T08:53:22.454Z,27.23
2017-12-05T08:55:53.814Z,24.27
2017-12-05T08:58:25.284Z,25.53
2017-12-05T09:00:56.653Z,25.60
2017-12-05T09:03:28.815Z,22.77
2017-12-05T09:06:00.163Z,32.10
2017-12-05T09:08:31.528Z,33.30
2017-12-05T09:11:03.318Z,33.23
2017-12-05T09:13:34.735Z,36.60
2017-12-05T09:16:12.061Z,34.47
2017-12-05T09:18:43.420Z,39.33
2017-12-05T09:21:14.761Z,29.70
2017-12-05T09:23:46.523Z,28.27
2017-12-05T09:26:17.970Z,26.47
2017-12-05T09:28:49.663Z,25.87
2017-12-05T09:31:21.091Z,23.17
2017-12-05T09:33:52.787Z,25.93
2017-12-05T09:36:24.659Z,21.63
2017-12-05T09:38:56.051Z,24.77
2017-12-05T09:41:27.786Z,27.30
2017-12-05T09:43:59.501Z,23.87
2017-12-05T09:46:31.082Z,18.57
2017-12-05T09:51:57.876Z,19.10
2017-12-05T09:54:31.002Z,14.43
2017-12-05T09:57:03.086Z,19.07
2017-12-05T09:59:34.459Z,19.30
2017-12-05T10:02:06.203Z,20.13
2017-12-05T10:04:37.849Z,19.63
2017-12-05T10:07:09.265Z,20.80
2017-12-05T10:09:40.731Z,19.00
2017-12-05T10:12:13.160Z,17.30
2017-12-05T10:14:44.739Z,14.03
2017-12-05T10:17:16.375Z,13.07
2017-12-05T10:19:47.787Z,13.27
2017-12-05T10:22:19.197Z,15.87
2017-12-05T10:24:50.864Z,15.03
2017-12-05T10:27:22.250Z,14.73
2017-12-05T10:29:53.628Z,14.60
2017-12-05T10:32:25.383Z,13.67
2017-12-05T10:34:56.765Z,13.73
2017-12-05T10:37:28.903Z,17.53
2017-12-05T10:40:00.311Z,17.97
2017-12-05T10:42:31.709Z,16.07
2017-12-05T10:45:03.609Z,19.30
2017-12-05T10:47:35.563Z,20.83
2017-12-05T10:50:07.623Z,13.00
2017-12-05T10:52:40.768Z,17.07
2017-12-05T10:55:12.145Z,15.37
2017-12-05T10:57:45.215Z,15.23
2017-12-05T11:00:17.069Z,10.10
2017-12-05T11:02:48.448Z,12.00
2017-12-05T11:05:20.258Z,9.07
2017-12-05T11:07:51.667Z,15.20
2017-12-05T11:10:23.053Z,16.10
2017-12-05T11:12:54.980Z,18.80
2017-12-05T11:15:28.724Z,13.27
2017-12-05T11:18:00.518Z,21.57
2017-12-05T11:20:33.743Z,15.10
2017-12-05T11:23:05.176Z,16.47
2017-12-05T11:25:38.526Z,22.50
2017-12-05T11:28:10.268Z,16.47
2017-12-05T11:30:43.598Z,18.50
2017-12-05T11:33:15.004Z,15.37
2017-12-05T11:35:47.982Z,23.77
2017-12-05T11:38:19.748Z,25.17
2017-12-05T11:40:52.790Z,16.83
2017-12-05T11:43:24.160Z,20.53
2017-12-05T11:45:56.414Z,17.20
2017-12-05T11:48:27.997Z,18.30
2017-12-05T11:50:59.780Z,17.27
2017-12-05T11:53:32.735Z,16.93
2017-12-05T11:56:05.736Z,16.43
2017-12-05T11:58:37.401Z,17.03
2017-12-05T12:01:08.808Z,16.50
2017-12-05T12:03:40.205Z,16.97
2017-12-05T12:06:12.047Z,22.33
2017-12-05T12:08:45.081Z,16.70
2017-12-05T12:11:16.496Z,20.40
2017-12-05T12:13:49.926Z,19.93
2017-12-05T12:16:22.146Z,20.50
2017-12-05T12:18:53.769Z,22.33
2017-12-05T12:21:25.295Z,22.17
2017-12-05T12:23:56.759Z,17.30
2017-12-05T12:26:30.416Z,19.43
2017-12-05T12:29:02.181Z,24.37
2017-12-05T12:31:35.374Z,21.53
2017-12-05T12:34:06.933Z,26.27
2017-12-05T12:36:39.588Z,23.50
2017-12-05T12:39:11.256Z,25.37
2017-12-05T12:41:44.348Z,23.30
2017-12-05T12:44:16.088Z,22.00
2017-12-05T12:46:47.506Z,17.63
2017-12-05T12:49:18.958Z,20.40
2017-12-05T12:51:52.175Z,23.80
2017-12-05T12:54:23.601Z,22.93
2017-12-05T12:56:55.492Z,23.80
2017-12-05T12:59:27.852Z,31.07
2017-12-05T13:01:59.161Z,24.10
2017-12-05T13:04:32.450Z,21.70
2017-12-05T13:07:04.241Z,26.10
2017-12-05T13:09:35.883Z,35.40
2017-12-05T13:12:09.963Z,26.50
2017-12-05T13:14:42.157Z,28.10
2017-12-05T13:17:13.935Z,28.40
2017-12-05T13:19:45.259Z,28.40
2017-12-05T13:22:16.999Z,27.63
2017-12-05T13:24:48.473Z,24.30
2017-12-05T13:27:19.928Z,27.50
2017-12-05T13:29:51.555Z,27.40
2017-12-05T13:32:22.916Z,27.03
2017-12-05T13:34:54.266Z,25.80
2017-12-05T13:37:26.087Z,31.00
2017-12-05T13:39:57.481Z,27.60
2017-12-05T13:42:29.108Z,32.87
2017-12-05T13:45:00.490Z,29.70
2017-12-05T13:47:31.865Z,23.57
2017-12-05T13:50:04.476Z,24.20
2017-12-05T13:52:36.139Z,33.33
2017-12-05T13:55:07.734Z,32.40
2017-12-05T13:57:39.556Z,31.10
2017-12-05T14:00:12.102Z,28.60
2017-12-05T14:02:43.945Z,29.13
2017-12-05T14:05:15.335Z,28.83
2017-12-05T14:07:46.707Z,28.70
2017-12-05T14:10:18.641Z,28.87
2017-12-05T14:12:51.173Z,37.90
2017-12-05T14:15:24.230Z,33.00
2017-12-05T14:17:55.945Z,35.17
2017-12-05T14:20:29.363Z,31.93
2017-12-05T14:23:02.942Z,32.20
2017-12-05T14:25:36.112Z,31.60
2017-12-05T14:28:10.367Z,33.13
2017-12-05T14:30:43.104Z,40.73
2017-12-05T14:33:14.448Z,36.70
2017-12-05T14:35:46.303Z,39.37
2017-12-05T14:38:17.990Z,37.87
2017-12-05T14:40:49.511Z,38.63
2017-12-05T14:43:21.015Z,32.57
2017-12-05T14:45:52.787Z,37.97
2017-12-05T14:48:24.191Z,33.73
2017-12-05T14:50:57.255Z,37.60
2017-12-05T14:53:28.774Z,35.20
2017-12-05T14:56:00.636Z,34.90
2017-12-05T14:58:32.840Z,34.70
2017-12-05T15:01:05.015Z,36.00
2017-12-05T15:03:36.374Z,41.27
2017-12-05T15:06:14.001Z,42.13
2017-12-05T15:08:50.077Z,41.37
2017-12-05T15:11:21.990Z,45.27
2017-12-05T15:13:53.689Z,38.77
2017-12-05T15:16:25.547Z,37.00
2017-12-05T15:18:57.266Z,41.50
2017-12-05T15:21:28.936Z,47.30
2017-12-05T15:24:00.366Z,41.77
2017-12-05T15:26:32.071Z,35.60
2017-12-05T15:29:04.046Z,41.50
2017-12-05T15:31:35.566Z,34.77
2017-12-05T15:34:07.810Z,38.77
2017-12-05T15:36:39.291Z,39.27
2017-12-05T15:39:11.162Z,39.53
2017-12-05T15:41:42.551Z,41.03
2017-12-05T15:44:17.579Z,42.20
2017-12-05T15:46:49.380Z,41.03
2017-12-05T15:49:20.789Z,42.23
2017-12-05T15:51:54.073Z,42.23
2017-12-05T15:54:25.495Z,36.20
2017-12-05T15:56:56.993Z,41.97
2017-12-05T15:59:29.387Z,46.40
2017-12-05T16:02:00.952Z,45.73
2017-12-05T16:04:32.419Z,38.47
2017-12-05T16:07:05.624Z,37.43
2017-12-05T16:09:37.033Z,45.20
2017-12-05T16:12:08.904Z,46.53
2017-12-05T16:14:40.270Z,49.93
2017-12-05T16:17:11.995Z,41.93
2017-12-05T16:19:43.635Z,46.40
2017-12-05T16:22:16.092Z,44.00
2017-12-05T16:24:47.489Z,47.83
2017-12-05T16:27:19.190Z,43.27
2017-12-05T16:29:52.041Z,47.90
2017-12-05T16:32:23.615Z,39.50
2017-12-05T16:34:55.052Z,40.33
2017-12-05T16:37:26.721Z,44.97
2017-12-05T16:39:59.421Z,43.13
2017-12-05T16:42:30.986Z,47.80
2017-12-05T16:45:02.649Z,48.20
2017-12-05T16:47:34.460Z,44.80
2017-12-05T16:50:07.424Z,42.83
2017-12-05T16:52:39.073Z,40.80
2017-12-05T16:55:14.020Z,43.00
2017-12-05T16:57:49.281Z,51.40
2017-12-05T17:00:22.664Z,40.30
2017-12-05T17:02:54.307Z,47.10
2017-12-05T17:05:28.704Z,44.07
2017-12-05T17:08:00.672Z,41.80
2017-12-05T17:10:32.343Z,49.43
2017-12-05T17:13:04.635Z,43.97
2017-12-05T17:15:38.502Z,48.00
2017-12-05T17:18:10.297Z,48.90
2017-12-05T17:20:42.267Z,44.50
2017-12-05T17:23:13.672Z,40.87
2017-12-05T17:25:45.100Z,44.33
2017-12-05T17:28:18.112Z,46.00
2017-12-05T17:30:51.320Z,47.17
2017-12-05T17:33:23.043Z,45.60
2017-12-05T17:35:54.728Z,53.23
2017-12-05T17:38:27.230Z,44.67
2017-12-05T17:41:00.473Z,48.17
2017-12-05T17:43:33.806Z,57.73
2017-12-05T17:46:06.463Z,47.90
2017-12-05T17:48:38.438Z,48.40
2017-12-05T17:51:09.819Z,52.13
2017-12-05T17:53:41.483Z,48.87
2017-12-05T17:56:13.610Z,51.47
2017-12-05T17:58:48.471Z,51.03
2017-12-05T18:01:19.985Z,52.70
2017-12-05T18:03:54.103Z,47.50
2017-12-05T18:06:26.081Z,47.67
2017-12-05T18:08:58.368Z,60.20
2017-12-05T18:11:32.707Z,59.23
2017-12-05T18:14:06.068Z,45.03
2017-12-05T18:16:37.438Z,52.13
2017-12-05T18:19:09.199Z,43.03
2017-12-05T18:24:35.516Z,50.20
2017-12-05T18:27:06.952Z,55.87
2017-12-05T18:29:38.690Z,50.03
2017-12-05T18:32:10.989Z,48.90
2017-12-05T18:34:42.742Z,53.47
2017-12-05T18:37:14.814Z,50.73
2017-12-05T18:39:46.721Z,49.53
2017-12-05T18:42:19.133Z,52.10
2017-12-05T18:44:52.911Z,55.97
2017-12-05T18:47:24.787Z,43.00
2017-12-05T18:49:56.833Z,46.70
2017-12-05T18:52:28.648Z,48.07
2017-12-05T18:55:02.088Z,46.47
2017-12-05T18:57:35.320Z,46.37
2017-12-05T19:00:11.520Z,46.77
2017-12-05T19:02:44.617Z,53.30
2017-12-05T19:05:16.658Z,45.17
2017-12-05T19:10:46.044Z,50.57
2017-12-05T19:13:17.742Z,45.67
2017-12-05T19:15:50.889Z,41.00
2017-12-05T19:18:23.144Z,43.27
2017-12-05T19:20:54.885Z,40.27
2017-12-05T19:23:26.996Z,44.80
2017-12-05T19:25:59.858Z,45.93
2017-12-05T19:28:32.945Z,44.63
2017-12-05T19:31:04.950Z,48.43
2017-12-05T19:33:38.422Z,43.57
2017-12-05T19:36:10.511Z,49.13
2017-12-05T19:38:42.467Z,48.47
2017-12-05T19:41:22.549Z,46.47
2017-12-05T19:43:54.105Z,42.00
2017-12-05T19:46:25.972Z,42.90
2017-12-05T19:48:57.578Z,41.37
2017-12-05T19:51:29.888Z,41.20
2017-12-05T19:54:08.547Z,43.67
2017-12-05T19:56:51.142Z,42.17
2017-12-05T19:59:23.247Z,46.27
2017-12-05T20:01:55.090Z,45.00
2017-12-05T20:04:26.887Z,42.60
2017-12-05T20:06:58.360Z,43.20
2017-12-05T20:09:30.435Z,47.47
2017-12-05T20:12:04.230Z,55.97
2017-12-05T20:14:35.962Z,45.40
2017-12-05T20:17:07.615Z,47.10
2017-12-05T20:19:39.188Z,48.00
2017-12-05T20:22:13.091Z,50.73
2017-12-05T20:24:44.710Z,39.40
2017-12-05T20:27:16.541Z,50.97
2017-12-05T20:29:49.319Z,55.87
2017-12-05T20:32:21.283Z,55.07
2017-12-05T20:34:53.288Z,63.00
2017-12-05T20:37:24.692Z,50.93
2017-12-05T20:39:57.237Z,56.10
2017-12-05T20:42:30.003Z,45.40
2017-12-05T20:45:02.056Z,45.53
2017-12-05T20:47:34.163Z,45.43
2017-12-05T20:50:08.298Z,51.50
2017-12-05T20:52:43.907Z,50.97
2017-12-05T20:55:15.696Z,49.13
2017-12-05T20:57:49.572Z,49.50
2017-12-05T21:00:21.139Z,52.77
2017-12-05T21:02:52.706Z,43.17
2017-12-05T21:05:24.459Z,47.33
2017-12-05T21:07:55.845Z,45.40
2017-12-05T21:10:27.865Z,50.80
2017-12-05T21:12:59.424Z,47.10
2017-12-05T21:15:30.747Z,50.53
2017-12-05T21:18:04.486Z,59.27
2017-12-05T21:23:25.122Z,53.30
2017-12-05T21:26:00.090Z,50.43
2017-12-05T21:28:33.084Z,48.07
2017-12-05T21:31:05.248Z,51.10
2017-12-05T21:33:56.891Z,49.23
2017-12-05T21:36:30.356Z,44.43
2017-12-05T21:39:02.299Z,44.83
2017-12-05T21:41:36.782Z,45.17
2017-12-05T21:44:11.512Z,51.90
2017-12-05T21:46:43.144Z,49.37
2017-12-05T21:49:14.821Z,54.50
2017-12-05T21:51:47.658Z,45.17
2017-12-05T21:54:19.680Z,51.70
2017-12-05T21:56:51.962Z,52.43
2017-12-05T21:59:54.011Z,61.17
2017-12-05T22:02:26.136Z,56.67
2017-12-05T22:04:57.767Z,60.03
2017-12-05T22:07:29.339Z,52.47
2017-12-05T22:10:01.412Z,64.90
2017-12-05T22:12:32.839Z,47.50
2017-12-05T22:15:05.191Z,53.10
2017-12-05T22:17:36.869Z,53.97
2017-12-05T22:20:08.677Z,52.87
2017-12-05T22:22:40.579Z,58.63
2017-12-05T22:25:12.758Z,60.00
2017-12-05T22:27:44.296Z,50.03
2017-12-05T22:30:16.073Z,51.63
2017-12-05T22:32:47.849Z,51.50
2017-12-05T22:35:22.923Z,59.47
2017-12-05T22:37:54.282Z,53.53
2017-12-05T22:40:25.978Z,53.40
2017-12-05T22:42:57.470Z,54.33
2017-12-05T22:45:29.406Z,54.73
2017-12-05T22:48:00.853Z,50.97
2017-12-05T22:50:32.325Z,58.33
2017-12-05T22:53:04.343Z,58.47
2017-12-05T22:55:36.071Z,48.33
2017-12-05T22:58:09.324Z,57.50
2017-12-05T23:00:40.750Z,54.73
2017-12-05T23:03:12.072Z,52.27
2017-12-05T23:05:44.666Z,57.73
2017-12-05T23:08:16.877Z,50.77
2017-12-05T23:10:48.237Z,53.00
2017-12-05T23:13:19.567Z,59.17
2017-12-05T23:15:51.222Z,49.10
2017-12-05T23:18:22.601Z,51.67
2017-12-05T23:20:53.928Z,50.97
2017-12-05T23:23:25.518Z,61.03
2017-12-05T23:25:56.829Z,56.73
2017-12-05T23:28:29.341Z,54.47
2017-12-05T23:31:01.078Z,48.50
2017-12-05T23:33:32.379Z,52.40
2017-12-05T23:36:05.226Z,56.07
2017-12-05T23:38:36.962Z,56.73
2017-12-05T23:41:08.583Z,53.30
2017-12-05T23:43:39.889Z,51.30
2017-12-05T23:46:14.257Z,53.57
2017-12-05T23:48:45.612Z,52.83
2017-12-05T23:51:17.202Z,54.60
2017-12-05T23:53:48.513Z,68.67
2017-12-05T23:56:21.573Z,67.50
2017-12-05T23:58:53.189Z,59.07
